Weather observations for the past three days for
Effingham, Effingham County Memorial Airport
Imperial (Metric)
Date Time (cdt) Wind (mph) Vis. (mi.) Weather Sky Cond. Temperature (ºF) Relative Humidity Wind Chill (°F) Heat Index (°F) Pressure Precipitation (in)
Air Dwpt 6 hour altimeter (in) sea level (mb) 1 hr 3 hr 6 hr
Max. Min.
08 04:15 S 5 10.00 Fair CLR 48.2 41.2 77% 47 29.94 0.0
08 03:55 SE 6 10.00 Fair CLR 48.2 41 76% 46 29.94 0.0
08 03:35 SE 6 10.00 Fair CLR 48.2 41 76% 46 29.94 0.0
08 03:15 SE 5 10.00 Fair CLR 48.4 41 76% 47 29.95 0.0
08 02:55 SE 6 10.00 Fair CLR 48.6 41 75% 47 29.95 0.0
08 02:35 SE 5 10.00 Fair CLR 49.3 40.6 72% 48 29.96 0.0
08 02:15 SE 3 10.00 Fair CLR 50.2 39.7 68% 29.97 0.0
08 01:55 S 6 10.00 Fair CLR 50 39.9 68% 48 29.97 0.0
08 01:35 SE 5 10.00 Fair CLR 50.5 39.7 67% 29.97 0.0
08 01:15 S 5 10.00 Fair CLR 50.7 39.7 66% 29.98 0.0
08 00:55 SE 5 10.00 Fair CLR 51.1 39.6 61.3 51.1 65% 29.98 0.0
08 00:35 SE 5 10.00 Fair CLR 51.8 39.6 63% 29.98 0.0
08 00:15 SE 6 10.00 Fair CLR 52 39.6 63% 29.98 0.0
07 23:55 S 5 10.00 Fair CLR 52.5 39.4 61% 29.98 0.0
07 23:35 S 6 10.00 Fair CLR 53.1 39 59% 29.98 0.0
07 23:15 S 6 10.00 Fair CLR 53.1 39.2 60% 29.98 0.0
07 22:55 SE 7 10.00 Fair CLR 53.6 39 58% 29.97 0.0
07 22:35 SE 7 10.00 Fair CLR 53.8 39.2 58% 29.97 0.0
07 22:15 SE 7 10.00 Fair CLR 53.4 39.4 59% 29.97 0.0
07 21:55 SE 6 10.00 Fair CLR 53.6 40.1 60% 29.97 0.0
07 21:35 SE 6 10.00 Fair CLR 53.2 41.2 64% 29.97 0.0
07 21:15 SE 5 10.00 Fair CLR 54.7 39.2 56% 29.96 0.0
07 20:55 SE 6 10.00 Fair CLR 55.4 38.7 54% 29.96 0.0
07 20:35 SE 6 10.00 Fair CLR 55 39.6 56% 29.95 0.0
07 20:15 SE 5 10.00 Fair CLR 56.3 39 53% 29.95 0.0
07 19:55 SE 3 10.00 Fair CLR 57.9 38.1 48% 29.95 0.0
07 19:35 S 5 10.00 Fair CLR 59.5 38.1 45% 29.94 0.0
07 19:15 S 7 10.00 Fair CLR 60.8 37.6 42% 29.95 0.0
07 18:55 S 9 10.00 Fair CLR 61.3 37.8 63.9 61 42% 29.94 0.0
07 18:35 S 12 10.00 Fair CLR 62.2 37.4 40% 29.94 0.0
07 18:15 S 14 G 18 10.00 Fair CLR 62.6 37.8 40% 29.94 0.0
07 17:55 S 12 G 18 10.00 Partly Cloudy SCT070 63.1 37.8 39% 29.95 0.0
07 17:35 S 13 10.00 Partly Cloudy SCT070 62.4 38.3 41% 29.96 0.0
07 17:15 S 9 10.00 Partly Cloudy SCT080 63.1 38.5 40% 29.96 0.0
07 16:55 S 14 G 18 10.00 Partly Cloudy SCT065 SCT080 63.9 37.9 38% 29.96 0.0
07 16:35 S 12 10.00 Partly Cloudy SCT070 SCT080 63.9 38.5 39% 29.96 0.0
07 16:15 S 8 G 17 10.00 Mostly Cloudy BKN075 BKN085 61.7 37.2 40% 29.97 0.0
07 15:55 S 8 G 16 10.00 Partly Cloudy SCT075 SCT085 63.3 37 38% 29.98 0.0
07 15:35 S 8 10.00 Partly Cloudy SCT075 SCT085 63.3 37.2 38% 29.98 0.0
07 15:15 SW 8 10.00 Partly Cloudy SCT075 63.9 37.2 37% 29.98 0.0
07 14:55 SW 8 G 18 10.00 Partly Cloudy SCT075 SCT085 63 36.9 38% 30 0.0
07 14:35 SW 8 10.00 Partly Cloudy SCT075 SCT085 61.9 34.9 37% 30 0.0
07 14:15 SW 7 10.00 Partly Cloudy SCT075 SCT085 62.2 33.4 34% 30.01 0.0
07 13:55 SW 6 10.00 Fair CLR 62.8 34.7 35% 30.01 0.0
07 13:35 SW 7 10.00 Fair CLR 62.4 36.3 38% 30.01 0.0
07 13:15 S 10 10.00 Fair CLR 61.7 34.7 37% 30.02 0.0
07 12:55 S 8 10.00 Fair CLR 61.7 34.9 61.7 40.8 37% 30.03 0.0
07 12:35 SW 8 G 28 10.00 Fair CLR 61 35.2 38% 30.03 0.0
07 12:15 SW 7 10.00 Fair CLR 59.9 33.4 37% 30.04 0.0
07 11:55 SW 6 10.00 Fair CLR 59.7 33.4 37% 30.04 0.0
07 11:35 SW 6 10.00 Fair CLR 59.7 33.8 38% 30.06 0.0
07 11:15 SW 10 10.00 Fair CLR 58.5 34 40% 30.06 0.0
07 10:55 S 6 10.00 Fair CLR 58.3 32.5 38% 30.06 0.0
07 10:35 SW 3 10.00 Fair CLR 57.6 33.1 40% 30.06 0.0
07 10:15 S 5 10.00 Fair CLR 56.5 34.5 44% 30.06 0.0
07 09:55 SW 6 10.00 Fair CLR 55.6 35.4 47% 30.07 0.0
07 09:35 S 3 10.00 Fair CLR 54.5 35.4 49% 30.07 0.0
07 09:15 S 6 10.00 Fair CLR 53.8 36.3 52% 30.07 0.0
07 08:55 S 6 10.00 Fair CLR 52.2 34.5 51% 30.07 0.0
07 08:15 S 3 10.00 Fair CLR 49.3 39.6 69% 30.07 0.0
07 07:55 Calm 10.00 Fair CLR 46.6 42.1 84% 30.06 0.0
07 07:35 Calm 10.00 Fair CLR 44.6 43.2 95% 30.06 0.0
07 07:15 Calm 10.00 Fair CLR 42.3 42.3 100% 30.06 0.0
07 06:55 Calm 10.00 Fair CLR 40.6 40.6 41.9 37.9 100% 30.06 0.0
07 06:35 Calm 10.00 Fair CLR 39 39 100% 30.05 0.0
07 06:15 Calm 10.00 Fair CLR 38.5 38.5 100% 30.04 0.0
07 05:55 Calm 10.00 Fair CLR 38.8 38.8 100% 30.04 0.0
07 05:35 Calm 10.00 Fair CLR 38.5 38.5 100% 30.04 0.0
07 05:15 Calm 10.00 Fair CLR 38.5 38.5 100% 30.05 0.0
07 04:55 Calm 10.00 Fair CLR 38.3 38.3 100% 30.05 0.0
07 04:35 Calm 7.00 Fair CLR 38.1 38.1 100% 30.05 0.0
07 04:15 Calm 7.00 Fair CLR 38.5 38.5 100% 30.05 0.0
07 03:55 Calm 10.00 Fair CLR 38.5 38.5 100% 30.06 0.0
07 03:35 Calm 10.00 Fair CLR 38.7 38.7 100% 30.05 0.0
07 03:15 Calm 10.00 Fair CLR 38.8 38.8 100% 30.05 0.0
07 02:55 Calm 10.00 Fair CLR 39.7 39.7 100% 30.05 0.0
07 02:35 Calm 10.00 Fair CLR 39.7 39.7 100% 30.05 0.0
07 02:15 Calm 10.00 Fair CLR 40.3 40.3 100% 30.05 0.0
07 01:55 Calm 10.00 Fair CLR 41.2 41 99% 30.05 0.0
07 01:35 Calm 10.00 Fair CLR 41 40.3 97% 30.05 0.0
07 01:15 Calm 10.00 Fair CLR 41.2 40.5 97% 30.06 0.0
07 00:55 Calm 10.00 Fair CLR 41.9 40.8 56.1 41.5 96% 30.05 0.0
07 00:35 Calm 10.00 Fair CLR 42.3 41.7 98% 30.05 0.0
07 00:15 Calm 10.00 Fair CLR 42.8 42.6 99% 30.05 0.0
06 23:55 Calm 10.00 Fair CLR 43 42.8 99% 30.04 0.0
06 23:35 Calm 10.00 Fair CLR 43.9 42.8 96% 30.04 0.0
06 23:15 Calm 10.00 Fair CLR 44.1 43.3 97% 30.05 0.0
06 22:55 Calm 10.00 Fair CLR 44.8 43.5 95% 30.04 0.0
06 22:35 Calm 10.00 Fair CLR 44.4 43.7 97% 30.05 0.0
06 22:15 Calm 10.00 Fair CLR 45.1 44.4 97% 30.05 0.0
06 21:55 Calm 10.00 Fair CLR 45.5 44.6 97% 30.04 0.0
06 21:35 Calm 10.00 Fair CLR 46 44.4 94% 30.04 0.0
06 21:15 Calm 10.00 Fair CLR 46.8 44.6 92% 30.04 0.0
06 20:55 Calm 10.00 Fair CLR 47.3 44.8 91% 30.03 0.0
06 20:35 Calm 10.00 Fair CLR 48.7 43.5 82% 30.02 0.0
06 20:15 Calm 10.00 Fair CLR 52.2 40.3 64% 30.01 0.0
06 19:55 NW 3 10.00 Fair CLR 52.7 39.2 60% 30.01 0.0
06 19:35 NW 6 10.00 Partly Cloudy SCT070 54.5 38.3 55% 30.01 0.0
06 19:15 NW 7 10.00 Mostly Cloudy BKN070 54.7 39.4 56% 30 0.0
06 18:55 NW 8 10.00 Mostly Cloudy BKN070 56.3 37.2 60.3 54.3 49% 30 0.0
06 18:35 NW 9 10.00 Mostly Cloudy BKN070 56.3 37.2 49% 30 0.0
06 18:15 W 10 10.00 Partly Cloudy SCT070 57.2 38.3 49% 30 0.0
06 17:55 NW 10 10.00 Partly Cloudy SCT060 58.3 35.8 43% 30 0.0
06 17:35 W 10 10.00 Partly Cloudy SCT060 59.7 36.7 42% 30 0.0
06 17:15 W 10 G 16 10.00 Partly Cloudy SCT060 SCT070 59.7 38.3 45% 30 0.0
06 16:55 NW 9 10.00 Mostly Cloudy BKN060 BKN070 59.4 37.6 44% 30 0.0
06 16:35 NW 13 G 16 10.00 Mostly Cloudy BKN060 59.9 38.7 46% 30 0.0
06 16:15 NW 9 10.00 Mostly Cloudy SCT060 BKN070 59.4 39.6 48% 30 0.0
06 15:55 W 7 10.00 Overcast SCT049 BKN060 OVC070 57.7 42.4 57% 30.01 0.0
06 15:35 NW 9 10.00 Mostly Cloudy SCT040 BKN060 57.9 43.9 60% 30 0.0
06 15:15 W 8 10.00 Fair CLR 59.5 44.6 58% 30.01 0.0
06 14:55 W 7 10.00 Partly Cloudy SCT030 SCT038 SCT044 58.3 44.6 61% 30.01 0.0
06 14:35 W 7 G 16 10.00 Overcast SCT030 BKN044 OVC090 59.2 45.9 62% 30 0.0
06 14:15 W 10 10.00 Overcast SCT028 OVC090 57.9 48 70% 30.01 0.0
06 13:55 W 10 10.00 Overcast SCT026 OVC090 57.7 47.8 70% 30.01 0.0
06 13:35 W 7 10.00 Overcast OVC090 57.2 47.7 71% 30.01 0.0
06 13:15 W 6 10.00 Overcast SCT015 OVC090 55.6 49.3 80% 30.01 0.0
06 12:55 SW 7 10.00 Overcast SCT015 OVC080 54.5 49.6 54.5 46.8 84% 30.02 0.0
06 12:35 W 6 10.00 Overcast SCT013 OVC080 52.9 48 84% 30.02 0.0
06 12:15 W 7 10.00 Overcast BKN013 OVC070 52.2 48.7 88% 30.02 0.0
06 11:55 W 6 10.00 Overcast SCT011 OVC070 51.8 49.3 91% 30.02 0.0
06 11:35 W 6 10.00 Overcast OVC080 51.3 48.2 89% 30.01 0.0
06 11:15 W 3 10.00 Overcast SCT011 OVC080 51.1 48.6 91% 30.01 0.0
06 10:55 W 6 10.00 Overcast SCT010 OVC080 50.9 48 90% 30 0.0
06 10:35 W 6 10.00 Overcast SCT010 OVC080 50.5 48.4 92% 30.01 0.0
06 10:15 W 7 10.00 Overcast SCT010 OVC070 50.4 48.2 92% 30 0.0
06 09:55 W 7 10.00 Overcast SCT010 OVC070 50.2 48.6 94% 29.99 0.0
06 09:35 W 7 10.00 Overcast OVC070 50 48.2 94% 48 29.98 0.0
06 09:15 W 6 10.00 Overcast OVC070 49.3 47.8 95% 47 29.99 0.0
06 08:55 W 5 10.00 Overcast OVC070 49.1 48.2 97% 48 29.98 0.0
06 08:35 W 8 10.00 Overcast OVC070 48.6 47.5 96% 45 29.98 0.0
06 08:15 W 6 10.00 Overcast OVC070 48.4 47.7 97% 46 29.98 0.0
06 07:55 W 5 10.00 Overcast BKN070 OVC085 48 47.5 98% 47 29.97 0.0
06 07:35 SW 5 10.00 Overcast BKN070 OVC085 47.7 47.3 99% 46 29.97 0.0
06 07:15 W 6 10.00 Overcast SCT070 BKN085 OVC120 47.8 47.3 98% 46 29.96 0.0
06 06:55 Calm 10.00 Overcast OVC095 46.8 46.8 46.8 45.5 100% 29.93 0.0
06 06:35 W 3 10.00 Overcast OVC095 46.4 46.4 100% 29.94 0.0
06 06:15 SW 3 10.00 Light Rain BKN095 OVC120 46.4 46.4 100% 29.94 0.0
06 05:35 W 3 10.00 Overcast BKN085 OVC110 46.4 46.4 100% 29.93 0.0
06 05:15 W 5 10.00 Light Rain BKN085 OVC120 46.2 46.2 100% 45 29.92 0.0
06 04:55 Calm 10.00 Light Rain SCT060 SCT090 OVC110 46 46 100% 29.91 0.0
06 04:35 Calm 10.00 Overcast SCT060 BKN085 OVC110 45.9 45.9 100% 29.9 0.0
06 04:15 W 3 10.00 Light Rain SCT060 BKN080 OVC110 46.4 46.2 99% 29.91 0.0
06 03:55 W 5 10.00 Mostly Cloudy BKN100 BKN120 46.4 46.2 99% 45 29.89 0.0
06 03:35 NW 3 10.00 Light Rain SCT070 BKN100 OVC120 46.4 46.4 100% 29.88 0.0
06 03:15 NW 3 10.00 Mostly Cloudy BKN100 46 46 100% 29.89 0.0
06 02:55 W 5 10.00 Partly Cloudy SCT070 SCT120 46 46 100% 44 29.89 0.0
06 02:35 Calm 10.00 Mostly Cloudy SCT070 SCT090 BKN110 46.2 46 99% 29.88 0.0
06 02:15 W 5 10.00 Overcast SCT060 BKN090 OVC110 46 46 100% 44 29.89 0.0
06 01:55 W 5 10.00 Light Rain BKN060 OVC100 45.9 45.9 100% 44 29.88 0.0
06 01:35 W 7 10.00 Light Rain SCT060 OVC100 46 46 100% 43 29.89 0.0
06 01:15 NW 6 10.00 Light Drizzle SCT060 OVC100 45.7 45.7 100% 43 29.88 0.0
06 00:55 W 6 10.00 Light Rain BKN060 BKN070 OVC100 45.7 45.7 48.2 45 100% 43 29.89 0.0 0.12
06 00:35 W 5 10.00 Rain BKN060 OVC070 45.5 45.5 100% 44 29.89 0.0
06 00:15 NW 5 10.00 Overcast OVC060 45.3 45.3 100% 43 29.9 0.0
05 23:55 W 6 10.00 Light Rain SCT070 OVC090 45.5 45.5 100% 43 29.91 0.0
05 23:35 Calm 10.00 Overcast SCT050 SCT070 OVC080 45.1 45.1 100% 29.89 0.0
05 23:15 N 3 10.00 Light Rain BKN050 OVC075 45 45 100% 29.88 0.0
05 22:55 N 5 10.00 Light Rain BKN046 OVC075 45.1 45.1 100% 43 29.88 0.0
05 22:35 NW 5 10.00 Light Rain BKN044 BKN060 OVC070 45 45 100% 43 29.89 0.0
05 22:15 N 5 10.00 Rain SCT038 BKN044 OVC070 45 45 100% 43 29.88 0.0
05 21:55 N 7 10.00 Rain BKN034 OVC041 45.1 45.1 100% 42 29.88 0.0 0.04 0.12
05 21:35 NW 7 10.00 Rain OVC032 45.3 45.3 100% 42 29.87 0.0 0.03
05 21:15 NW 8 7.00 Light Rain BKN030 OVC041 45.1 45.1 100% 41 29.87 0.0 0.03
05 20:55 NW 9 10.00 Light Rain SCT007 BKN030 OVC065 45.9 45.9 100% 42 29.87 0.0 0.08
05 20:35 NW 9 10.00 Light Rain SCT007 BKN050 OVC065 46.4 46 99% 42 29.84 0.0 0.08
05 19:55 NW 7 7.00 Rain BKN007 OVC012 48 48 100% 45 29.85 0.0
05 19:35 Calm 4.00 Light Rain BKN009 OVC013 47.7 47.7 100% 29.81 0.0
05 19:15 Calm 5.00 Rain SCT008 OVC011 47.8 47.8 100% 29.82 0.0
05 18:55 NE 3 5.00 Light Rain OVC009 47.7 47.7 52.7 47.5 100% 29.8 0.0 0.04 0.27
05 18:35 N 3 5.00 Drizzle BKN009 OVC013 47.7 47.7 100% 29.81 0.0
05 18:15 Calm 5.00 Drizzle OVC011 47.7 47.7 100% 29.81 0.0
05 17:55 Calm 7.00 Drizzle BKN011 OVC038 47.7 47.7 100% 29.82 0.0 0.06
05 17:35 N 6 7.00 Rain SCT011 SCT016 OVC038 47.7 47.7 100% 45 29.83 0.0 0.06
05 17:15 N 6 5.00 Heavy Rain SCT011 BKN038 OVC047 47.7 47.5 99% 45 29.81 0.0 0.04
05 16:55 N 8 7.00 Rain SCT009 BKN042 OVC050 47.8 47.8 100% 45 29.81 0.0 0.11
05 16:35 N 10 7.00 Rain BKN009 BKN015 OVC050 48.2 48.2 100% 44 29.82 0.0 0.07
05 16:15 N 10 G 17 5.00 Heavy Rain BKN009 OVC013 49.1 49.1 100% 45 29.81 0.0 0.04
05 15:55 NW 12 7.00 Heavy Rain BKN011 BKN015 OVC045 49.5 49.5 100% 45 29.82 0.0 0.05 0.05
05 15:35 NW 12 7.00 Rain SCT011 BKN034 OVC042 50 49.5 98% 46 29.81 0.0 0.03
05 15:15 NW 8 G 17 10.00 Rain OVC032 50.2 48.9 95% 29.83 0.0
05 14:55 NW 16 G 21 10.00 Light Rain SCT016 SCT021 OVC030 50.9 48.6 92% 29.84 0.0
05 14:35 NW 10 G 17 10.00 Light Rain SCT018 OVC026 51.8 49.1 91% 29.84 0.0
05 14:15 NW 9 G 20 10.00 Light Drizzle OVC024 52 48.7 89% 29.84 0.0
05 13:55 NW 7 10.00 Light Rain OVC022 52.5 48.7 87% 29.84 0.0
05 13:35 NW 3 10.00 Overcast OVC022 52.5 49.5 89% 29.83 0.0
05 13:15 Calm 10.00 Overcast OVC024 52.2 48.9 89% 29.83 0.0
05 12:55 Calm 10.00 Overcast OVC024 52.2 48.4 57.4 48.2 87% 29.84 0.0 0.1
05 12:35 N 3 10.00 Overcast OVC026 51.8 48.4 88% 29.83 0.0
05 12:15 Calm 10.00 Overcast OVC028 51.6 48.9 91% 29.84 0.0
05 11:55 N 3 10.00 Overcast OVC030 50.9 48.2 91% 29.82 0.0
05 11:35 NW 7 10.00 Overcast OVC032 51.1 48.4 91% 29.83 0.0
05 11:15 N 6 10.00 Overcast BKN034 BKN040 OVC095 50.9 47.7 89% 29.82 0.0
05 10:55 N 6 10.00 Light Rain SCT028 SCT035 OVC095 50.2 48.4 94% 29.8 0.0 0.03
05 10:35 N 5 10.00 Light Rain SCT029 BKN037 OVC095 49.6 48.9 97% 48 29.81 0.0 0.03
05 10:15 N 5 4.00 Rain SCT032 BKN040 OVC050 48.4 47.8 98% 47 29.81 0.0 0.03
05 09:55 N 8 7.00 Heavy Rain BKN032 OVC042 49.3 47.3 93% 46 29.84 0.0 0.04 0.07
05 09:35 NW 6 10.00 Light Rain OVC032 50.5 48.9 94% 29.84 0.0
05 09:15 N 8 10.00 Overcast OVC032 50.9 48.2 91% 29.83 0.0
05 08:55 NW 8 10.00 Light Rain BKN032 OVC042 50.9 48.9 93% 29.83 0.0 0.03
05 08:15 NW 8 10.00 Mostly Cloudy BKN040 BKN060 BKN065 52.3 50.2 92% 29.82 0.0
05 07:55 N 7 10.00 Light Rain SCT042 SCT050 BKN060 52.9 50.9 93% 29.79 0.0
05 07:35 N 7 10.00 Rain SCT043 OVC070 54.9 52.3 91% 29.78 0.0
05 07:15 N 6 10.00 Light Rain SCT070 BKN100 OVC120 56.3 54.5 94% 29.78 0.0
05 06:55 NW 12 10.00 Rain SCT040 SCT065 OVC120 57.4 55.6 68 56.5 94% 29.79 0.0 0.04
05 06:35 W 12 10.00 Overcast BKN038 OVC050 58.5 55.9 91% 29.79 0.0
05 06:15 W 7 10.00 Partly Cloudy SCT050 SCT120 57.4 57.2 99% 29.78 0.0
05 05:55 NW 6 10.00 Partly Cloudy SCT055 SCT090 SCT120 57.2 57.2 100% 29.76 0.0
05 05:35 W 3 10.00 Light Drizzle SCT065 BKN090 BKN120 57.2 57.2 100% 29.76 0.0
05 04:55 W 5 10.00 Mostly Cloudy BKN070 BKN080 58.1 57.2 97% 29.74 0.0
05 04:35 SE 9 10.00 Fair CLR 57.6 57.2 99% 29.72 0.0
Date Time (cdt) Wind (mph) Vis. (mi.) Weather Sky Cond. Air Dwpt Max. Min. Relative Humidity Wind Chill (°F) Heat Index (°F) altimeter (in) sea level (mb) 1 hr 3 hr 6 hr
6 hour
Temperature (ºF) Pressure Precipitation (in)